Time;durP1;ratioP1;P1;durP2;ratioP2;P2;SDS_P1;SDS_P2;PMS_P1;PMS_P2;Temp;Humidity;BMP_temperature;BMP_pressure;BME280_temperature;BME280_humidity;BME280_pressure;Samples;Min_cycle;Max_cycle;Signal;HPM_P1;HPM_P2
2022/06/24 00:00:44;;;;;;;0.17;0.17;;;12.20;99.90;;;;;;5052407;28;20710;-75
2022/06/24 00:03:19;;;;;;;0.40;0.40;;;12.10;99.90;;;;;;5051692;28;20190;-74
2022/06/24 00:05:49;;;;;;;0.25;0.25;;;12.00;99.90;;;;;;5030890;28;20733;-73
2022/06/24 00:08:15;;;;;;;0.35;0.35;;;12.00;99.90;;;;;;5014263;28;20198;-73
2022/06/24 00:10:43;;;;;;;0.47;0.47;;;12.00;99.90;;;;;;5033215;28;20325;-73
2022/06/24 00:13:08;;;;;;;0.30;0.30;;;11.90;99.90;;;;;;5032272;28;20193;-74
2022/06/24 00:15:36;;;;;;;0.30;0.30;;;11.90;99.90;;;;;;5024271;28;20225;-74
2022/06/24 00:18:20;;;;;;;0.60;0.60;;;11.80;99.90;;;;;;5052050;28;20193;-74
2022/06/24 00:20:50;;;;;;;1.17;0.55;;;11.70;99.90;;;;;;5051864;28;20189;-74
2022/06/24 00:23:18;;;;;;;0.38;0.38;;;11.60;99.90;;;;;;5051830;28;20535;-74
2022/06/24 00:25:46;;;;;;;0.30;0.30;;;11.60;99.90;;;;;;5082501;28;20257;-74
2022/06/24 00:28:13;;;;;;;0.22;0.22;;;11.60;99.90;;;;;;5091889;28;20203;-74
2022/06/24 00:30:53;;;;;;;0.20;0.20;;;11.60;99.90;;;;;;5060348;28;20679;-75
2022/06/24 00:33:22;;;;;;;0.30;0.30;;;11.60;99.90;;;;;;5050161;28;20565;-74
2022/06/24 00:35:52;;;;;;;0.10;0.10;;;11.50;99.90;;;;;;5051164;28;20190;-74
2022/06/24 00:38:31;;;;;;;0.20;0.20;;;11.50;99.90;;;;;;5051089;28;20217;-74
2022/06/24 00:41:00;;;;;;;0.25;0.25;;;11.40;99.90;;;;;;5049998;28;20602;-75
2022/06/24 00:43:34;;;;;;;1.17;0.65;;;11.30;99.90;;;;;;5051064;28;20193;-74
2022/06/24 00:46:10;;;;;;;0.30;0.30;;;11.30;99.90;;;;;;5050668;28;20296;-74
2022/06/24 00:48:40;;;;;;;1.40;0.90;;;11.30;99.90;;;;;;5050220;28;20276;-73
2022/06/24 00:51:07;;;;;;;0.38;0.38;;;11.20;99.90;;;;;;5051547;28;20599;-74
2022/06/24 00:53:44;;;;;;;0.65;0.50;;;11.20;99.90;;;;;;5051686;28;20243;-73
2022/06/24 00:56:13;;;;;;;0.45;0.45;;;11.20;99.90;;;;;;5051303;28;20275;-74
2022/06/24 00:58:40;;;;;;;0.20;0.20;;;11.10;99.90;;;;;;5051670;28;20193;-74
2022/06/24 01:01:05;;;;;;;0.20;0.20;;;11.10;99.90;;;;;;5051758;28;20213;-69
2022/06/24 01:03:42;;;;;;;0.25;0.25;;;11.10;99.90;;;;;;5049631;28;20200;-69
2022/06/24 01:06:09;;;;;;;0.30;0.30;;;11.00;99.90;;;;;;5058949;28;20196;-69
2022/06/24 01:08:35;;;;;;;0.50;0.50;;;11.00;99.90;;;;;;5069737;28;20527;-68
2022/06/24 01:11:01;;;;;;;0.20;0.20;;;11.00;99.90;;;;;;5070107;28;20227;-69
2022/06/24 01:13:29;;;;;;;0.20;0.20;;;11.00;99.90;;;;;;5071253;28;20578;-69
2022/06/24 01:15:55;;;;;;;0.22;0.22;;;10.90;99.90;;;;;;5061544;28;20241;-70
2022/06/24 01:18:21;;;;;;;0.20;0.20;;;10.90;99.90;;;;;;5033127;28;20232;-70
2022/06/24 01:20:47;;;;;;;0.32;0.32;;;10.90;99.90;;;;;;5045933;28;20237;-70
2022/06/24 01:23:21;;;;;;;0.20;0.20;;;10.90;99.90;;;;;;5031549;28;20222;-70
2022/06/24 01:25:47;;;;;;;0.20;0.20;;;10.80;99.90;;;;;;5037309;28;20196;-70
2022/06/24 01:28:12;;;;;;;0.20;0.20;;;10.80;99.90;;;;;;5033429;28;20196;-70
2022/06/24 01:30:38;;;;;;;0.38;0.38;;;10.80;99.90;;;;;;5033210;28;20205;-71
2022/06/24 01:33:06;;;;;;;0.17;0.15;;;10.80;99.90;;;;;;5050753;28;20675;-70
2022/06/24 01:35:32;;;;;;;0.30;0.30;;;10.70;99.90;;;;;;5050450;28;20194;-70
2022/06/24 01:37:58;;;;;;;0.40;0.40;;;10.80;99.90;;;;;;5033492;28;20204;-70
2022/06/24 01:40:23;;;;;;;0.35;0.35;;;10.70;99.90;;;;;;5052614;28;20197;-70
2022/06/24 01:42:49;;;;;;;0.40;0.40;;;10.70;99.90;;;;;;5054838;28;20652;-70
2022/06/24 01:45:15;;;;;;;0.43;0.43;;;10.70;99.90;;;;;;5054709;28;20193;-70
2022/06/24 01:47:40;;;;;;;3.40;1.85;;;10.70;99.90;;;;;;5054402;28;20209;-70
2022/06/24 01:50:07;;;;;;;0.30;0.30;;;10.60;99.90;;;;;;5054627;28;20198;-70
2022/06/24 01:52:32;;;;;;;0.30;0.30;;;10.60;99.90;;;;;;5054313;28;20225;-69
2022/06/24 01:54:58;;;;;;;1.77;0.60;;;10.50;99.90;;;;;;5054396;28;20213;-70
2022/06/24 01:57:25;;;;;;;0.20;0.20;;;10.50;99.90;;;;;;5054212;28;20193;-70
2022/06/24 01:59:51;;;;;;;0.20;0.20;;;10.50;99.90;;;;;;5054688;28;20193;-69
2022/06/24 02:02:17;;;;;;;0.55;0.30;;;10.50;99.90;;;;;;5044757;28;20229;-70
2022/06/24 02:04:46;;;;;;;0.40;0.40;;;10.40;99.90;;;;;;5054337;28;20217;-70
2022/06/24 02:07:12;;;;;;;0.30;0.30;;;10.40;99.90;;;;;;5032844;28;20212;-71
2022/06/24 02:13:26;;;;;;;1.13;0.85;;;10.40;99.90;;;;;;5034087;28;20281;-70
2022/06/24 02:15:07;;;;;;;0.30;0.30;;;10.40;99.90;;;;;;5033890;28;20719;-70
2022/06/24 02:17:33;;;;;;;0.20;0.20;;;10.40;99.90;;;;;;5025724;28;20692;-69
2022/06/24 02:19:59;;;;;;;0.35;0.35;;;10.40;99.90;;;;;;5053784;28;20194;-70
2022/06/24 02:22:25;;;;;;;0.65;0.60;;;10.40;99.90;;;;;;5043694;28;20225;-69
2022/06/24 02:24:51;;;;;;;0.50;0.50;;;10.50;99.90;;;;;;5016535;28;20199;-69
2022/06/24 02:27:16;;;;;;;0.20;0.20;;;10.60;99.90;;;;;;5034235;28;20202;-68
2022/06/24 02:29:42;;;;;;;0.20;0.20;;;10.60;99.90;;;;;;5034008;28;20274;-69
2022/06/24 02:32:08;;;;;;;0.40;0.40;;;10.70;99.90;;;;;;5034503;28;20193;-69
2022/06/24 02:34:33;;;;;;;0.40;0.40;;;10.80;99.90;;;;;;5033675;28;20197;-69
2022/06/24 02:36:59;;;;;;;0.40;0.40;;;10.90;99.90;;;;;;5015401;28;20198;-69
2022/06/24 02:39:25;;;;;;;0.40;0.40;;;11.00;99.90;;;;;;5033288;28;20324;-69
2022/06/24 02:41:51;;;;;;;0.30;0.30;;;11.10;99.90;;;;;;5033687;28;20201;-69
2022/06/24 02:44:17;;;;;;;0.35;0.35;;;11.20;99.90;;;;;;5015994;28;20205;-70
2022/06/24 02:46:42;;;;;;;0.25;0.25;;;11.30;99.90;;;;;;5033286;28;20206;-70
2022/06/24 02:49:08;;;;;;;0.47;0.47;;;11.40;99.90;;;;;;5033540;28;20260;-70
2022/06/24 02:51:34;;;;;;;0.47;0.47;;;11.50;99.90;;;;;;5033181;28;20198;-70
2022/06/24 02:54:00;;;;;;;0.32;0.32;;;11.50;99.90;;;;;;5033395;28;20543;-70
2022/06/24 02:56:25;;;;;;;0.40;0.40;;;11.60;99.90;;;;;;5015221;28;20199;-70
2022/06/24 02:58:52;;;;;;;0.52;0.52;;;11.60;99.90;;;;;;5025262;28;20209;-70
2022/06/24 03:01:18;;;;;;;0.40;0.40;;;11.60;99.90;;;;;;5034235;28;20202;-70
2022/06/24 03:03:44;;;;;;;0.40;0.40;;;11.60;99.90;;;;;;5025171;28;20201;-70
2022/06/24 03:06:10;;;;;;;0.20;0.20;;;11.60;99.90;;;;;;5020154;28;20289;-70
2022/06/24 03:08:36;;;;;;;0.20;0.20;;;11.60;99.90;;;;;;5015263;28;20220;-70
2022/06/24 03:11:02;;;;;;;1.35;0.73;;;11.70;99.90;;;;;;5015441;28;20665;-70
2022/06/24 03:13:28;;;;;;;0.80;0.57;;;11.70;99.90;;;;;;5039313;28;20334;-71
2022/06/24 03:15:53;;;;;;;1.17;0.50;;;11.70;99.90;;;;;;5052651;28;20255;-70
2022/06/24 03:18:20;;;;;;;0.55;0.50;;;11.80;99.90;;;;;;5046056;28;20221;-70
2022/06/24 03:20:46;;;;;;;0.38;0.38;;;11.80;99.90;;;;;;5032623;28;20182;-69
2022/06/24 03:23:16;;;;;;;0.45;0.32;;;11.90;99.90;;;;;;5032838;28;20694;-69
2022/06/24 03:25:42;;;;;;;0.28;0.28;;;12.00;99.90;;;;;;5032611;28;20186;-69
2022/06/24 03:28:08;;;;;;;0.98;0.82;;;12.10;99.90;;;;;;5032945;28;20292;-70
2022/06/24 03:30:34;;;;;;;0.32;0.32;;;12.10;99.90;;;;;;5032916;28;20269;-69
2022/06/24 03:33:01;;;;;;;0.95;0.60;;;12.30;99.90;;;;;;5015059;28;20194;-69
2022/06/24 03:35:27;;;;;;;0.40;0.40;;;12.40;99.90;;;;;;5032646;28;20191;-70
2022/06/24 03:37:53;;;;;;;0.22;0.22;;;12.40;99.90;;;;;;5032929;28;20293;-69
2022/06/24 03:40:19;;;;;;;0.60;0.60;;;12.60;99.90;;;;;;5032481;28;20668;-70
2022/06/24 03:42:45;;;;;;;0.55;0.55;;;12.70;99.90;;;;;;5032796;28;20205;-69
2022/06/24 03:45:11;;;;;;;0.80;0.80;;;12.80;99.90;;;;;;5014953;28;20198;-69
2022/06/24 03:47:37;;;;;;;1.25;0.88;;;13.00;99.90;;;;;;5032807;28;20673;-70
2022/06/24 03:50:03;;;;;;;1.10;0.93;;;13.10;99.90;;;;;;5014662;28;20205;-69
2022/06/24 03:52:28;;;;;;;0.50;0.50;;;13.20;99.90;;;;;;5032360;28;20424;-70
2022/06/24 03:54:54;;;;;;;0.95;0.90;;;13.30;99.90;;;;;;5032357;28;20205;-69
2022/06/24 03:57:20;;;;;;;1.10;1.10;;;13.40;99.90;;;;;;5031411;28;20202;-71
2022/06/24 03:59:46;;;;;;;0.50;0.50;;;13.50;99.90;;;;;;5032463;28;20559;-69
2022/06/24 04:02:12;;;;;;;0.60;0.60;;;13.60;99.90;;;;;;5013920;28;20209;-70
2022/06/24 04:04:37;;;;;;;0.70;0.70;;;13.60;99.90;;;;;;5032090;28;20205;-70
2022/06/24 04:07:04;;;;;;;1.05;0.80;;;13.70;99.90;;;;;;5047703;28;20205;-70
2022/06/24 04:09:29;;;;;;;0.90;0.90;;;13.80;99.90;;;;;;5051708;28;20200;-70
2022/06/24 04:11:55;;;;;;;0.82;0.82;;;13.90;99.90;;;;;;5034191;28;20285;-70
2022/06/24 04:17:05;;;;;;;0.73;0.73;;;14.10;99.90;;;;;;5031748;28;20847;-70
2022/06/24 04:19:35;;;;;;;1.00;0.90;;;14.10;99.90;;;;;;5031959;28;20211;-70
2022/06/24 04:22:01;;;;;;;0.73;0.73;;;14.20;99.90;;;;;;5014137;28;20226;-69
2022/06/24 04:24:27;;;;;;;0.70;0.70;;;14.20;99.90;;;;;;5014111;28;20252;-70
2022/06/24 04:26:53;;;;;;;1.27;1.17;;;14.30;99.90;;;;;;5014053;28;20502;-69
2022/06/24 04:29:18;;;;;;;1.48;0.75;;;14.40;99.90;;;;;;5031937;28;20192;-71
2022/06/24 04:31:44;;;;;;;0.60;0.60;;;14.50;99.90;;;;;;5032043;28;20218;-69
2022/06/24 04:34:10;;;;;;;0.50;0.50;;;14.60;99.90;;;;;;5031642;28;20415;-70
2022/06/24 04:36:37;;;;;;;0.75;0.60;;;14.70;99.90;;;;;;5014227;28;20233;-70
2022/06/24 04:39:02;;;;;;;1.65;1.20;;;14.70;99.90;;;;;;5031773;28;20198;-71
2022/06/24 04:41:29;;;;;;;1.33;1.08;;;14.80;99.90;;;;;;5031008;28;20191;-70
2022/06/24 04:43:54;;;;;;;0.73;0.73;;;14.90;99.90;;;;;;5031817;28;20198;-70
2022/06/24 04:46:21;;;;;;;0.70;0.70;;;15.00;99.90;;;;;;5031489;28;20214;-70
2022/06/24 04:48:46;;;;;;;0.40;0.40;;;15.10;99.90;;;;;;5031709;28;20198;-70
2022/06/24 04:51:12;;;;;;;0.65;0.65;;;15.10;99.90;;;;;;5040272;28;20205;-69
2022/06/24 04:53:38;;;;;;;1.20;1.10;;;15.10;99.90;;;;;;5051433;28;20268;-69
2022/06/24 04:56:04;;;;;;;0.68;0.68;;;15.10;99.90;;;;;;5051383;28;20193;-70
2022/06/24 04:58:30;;;;;;;1.08;0.88;;;15.20;99.90;;;;;;5051302;28;20197;-70
2022/06/24 05:00:56;;;;;;;0.85;0.80;;;15.30;99.90;;;;;;5033933;28;20205;-69
2022/06/24 05:03:22;;;;;;;0.90;0.88;;;15.40;99.90;;;;;;5051417;28;20194;-70
2022/06/24 05:05:47;;;;;;;0.75;0.75;;;15.40;99.90;;;;;;5051493;28;20210;-70
2022/06/24 05:08:13;;;;;;;0.52;0.52;;;15.50;99.90;;;;;;5051445;28;20186;-71
2022/06/24 05:10:41;;;;;;;0.50;0.50;;;15.60;99.90;;;;;;5043000;28;20209;-71
2022/06/24 05:13:08;;;;;;;0.40;0.40;;;15.70;99.90;;;;;;5051525;28;20272;-70
2022/06/24 05:15:34;;;;;;;0.75;0.75;;;15.70;99.90;;;;;;5053275;28;20631;-70
2022/06/24 05:17:59;;;;;;;2.75;0.50;;;15.60;99.90;;;;;;5055351;28;20232;-70
2022/06/24 05:20:25;;;;;;;0.85;0.80;;;15.70;99.90;;;;;;5054596;28;20193;-70
2022/06/24 05:22:51;;;;;;;1.02;0.85;;;15.90;99.90;;;;;;5055033;28;20198;-70
2022/06/24 05:25:16;;;;;;;0.60;0.60;;;15.90;99.90;;;;;;5037279;28;20615;-70
2022/06/24 05:27:42;;;;;;;0.60;0.60;;;16.00;99.90;;;;;;5055071;28;20212;-70
2022/06/24 05:30:10;;;;;;;0.70;0.70;;;16.10;99.90;;;;;;5055223;28;20224;-70
2022/06/24 05:32:35;;;;;;;0.80;0.80;;;16.20;99.90;;;;;;5055235;28;20190;-70
2022/06/24 05:35:01;;;;;;;1.15;0.93;;;16.30;99.90;;;;;;5036936;28;20295;-70
2022/06/24 05:37:27;;;;;;;1.55;0.98;;;16.30;99.90;;;;;;5054665;28;20564;-70
2022/06/24 05:39:52;;;;;;;0.60;0.60;;;16.30;99.90;;;;;;5054897;28;20202;-69
2022/06/24 05:42:18;;;;;;;2.25;1.20;;;16.30;99.90;;;;;;5054585;28;20197;-70
2022/06/24 05:44:44;;;;;;;1.83;1.35;;;16.40;99.90;;;;;;5054825;28;20243;-69
2022/06/24 05:47:09;;;;;;;1.13;0.80;;;16.50;99.90;;;;;;5054314;28;20213;-69
2022/06/24 05:49:38;;;;;;;1.33;0.98;;;16.80;99.90;;;;;;5054638;28;20205;-70
2022/06/24 05:52:04;;;;;;;0.68;0.68;;;16.80;99.90;;;;;;5054568;28;20186;-70
2022/06/24 05:57:14;;;;;;;0.88;0.88;;;16.50;99.90;;;;;;5054466;28;20579;-70
2022/06/24 05:59:40;;;;;;;0.75;0.73;;;16.40;99.90;;;;;;5054099;28;20197;-69
2022/06/24 06:02:06;;;;;;;0.68;0.68;;;16.20;99.90;;;;;;5054187;28;20687;-70
2022/06/24 06:04:32;;;;;;;2.38;1.20;;;16.10;99.90;;;;;;5053752;28;20198;-70
2022/06/24 06:06:58;;;;;;;1.33;0.80;;;16.50;99.90;;;;;;5048333;28;20202;-70
2022/06/24 06:09:24;;;;;;;1.65;1.25;;;16.90;99.90;;;;;;5034208;28;20264;-70
2022/06/24 06:11:50;;;;;;;3.33;1.02;;;17.50;99.90;;;;;;5034336;28;20225;-70
2022/06/24 06:14:15;;;;;;;1.02;0.93;;;18.00;99.90;;;;;;5016543;28;20226;-71
2022/06/24 06:16:41;;;;;;;0.50;0.50;;;18.50;99.90;;;;;;5033871;28;20238;-71
2022/06/24 06:19:07;;;;;;;0.52;0.52;;;19.00;99.90;;;;;;5016358;28;20199;-70
2022/06/24 06:21:32;;;;;;;0.57;0.52;;;19.10;99.90;;;;;;5033840;28;20226;-70
2022/06/24 06:23:58;;;;;;;0.68;0.68;;;19.10;99.90;;;;;;5034293;28;20205;-68
2022/06/24 06:26:24;;;;;;;0.85;0.85;;;19.30;99.90;;;;;;5033327;28;20205;-70
2022/06/24 06:28:50;;;;;;;1.52;0.73;;;19.90;99.90;;;;;;5016264;28;20198;-70
2022/06/24 06:31:18;;;;;;;0.68;0.50;;;20.60;99.90;;;;;;5033998;28;20272;-71
2022/06/24 06:33:44;;;;;;;1.90;1.25;;;21.00;99.90;;;;;;5033777;28;20744;-70
2022/06/24 06:36:12;;;;;;;0.93;0.77;;;21.20;99.90;;;;;;5033588;28;20202;-70
2022/06/24 06:38:39;;;;;;;0.85;0.77;;;21.60;99.90;;;;;;5033143;28;20206;-70
2022/06/24 06:41:05;;;;;;;0.45;0.45;;;21.60;99.90;;;;;;5033812;28;20564;-69
2022/06/24 06:43:31;;;;;;;0.63;0.63;;;21.70;99.90;;;;;;5022266;28;20193;-69
2022/06/24 06:45:57;;;;;;;1.33;0.75;;;22.00;99.90;;;;;;5053180;28;20664;-70
2022/06/24 06:48:24;;;;;;;0.80;0.80;;;22.10;99.90;;;;;;5053158;28;20359;-72
2022/06/24 06:50:57;;;;;;;0.60;0.60;;;22.40;99.90;;;;;;5035582;28;20278;-68
2022/06/24 06:53:24;;;;;;;0.55;0.55;;;22.20;99.90;;;;;;5053157;28;20264;-69
2022/06/24 06:55:51;;;;;;;0.52;0.52;;;22.30;99.90;;;;;;5053123;28;20185;-69
2022/06/24 06:58:21;;;;;;;1.55;1.23;;;22.20;99.90;;;;;;5052874;28;20197;-70
2022/06/24 07:00:47;;;;;;;0.77;0.77;;;22.30;99.90;;;;;;5053177;28;20617;-69
2022/06/24 07:03:39;;;;;;;1.00;0.75;;;22.20;99.90;;;;;;5036284;28;20198;-70
2022/06/24 07:06:05;;;;;;;1.45;1.00;;;22.30;99.90;;;;;;5044848;28;20242;-71
2022/06/24 07:08:31;;;;;;;0.77;0.63;;;22.50;99.90;;;;;;5015170;28;20575;-71
2022/06/24 07:10:57;;;;;;;0.65;0.65;;;22.60;99.90;;;;;;5033392;28;20198;-71
2022/06/24 07:13:27;;;;;;;0.50;0.43;;;23.10;99.90;;;;;;5015338;28;20560;-71
2022/06/24 07:16:02;;;;;;;0.47;0.47;;;23.10;99.90;;;;;;5033014;28;20308;-71
2022/06/24 07:18:28;;;;;;;0.30;0.30;;;22.70;99.90;;;;;;5032634;28;20567;-69
2022/06/24 07:20:59;;;;;;;14.07;1.20;;;22.90;99.90;;;;;;5018016;28;20222;-70
2022/06/24 07:23:38;;;;;;;0.75;0.68;;;23.00;99.90;;;;;;5017900;28;20248;-70
2022/06/24 07:26:03;;;;;;;0.68;0.65;;;23.10;99.90;;;;;;5033745;28;20273;-72
2022/06/24 07:28:29;;;;;;;0.95;0.75;;;23.40;99.90;;;;;;5032760;28;20324;-73
2022/06/24 07:30:55;;;;;;;1.17;0.73;;;23.20;99.90;;;;;;5033970;28;20193;-72
2022/06/24 07:33:23;;;;;;;0.82;0.68;;;23.40;99.90;;;;;;5036208;28;20214;-72
2022/06/24 07:35:51;;;;;;;1.27;0.55;;;23.40;99.90;;;;;;5018227;28;20233;-73
2022/06/24 07:38:18;;;;;;;0.43;0.43;;;23.20;99.90;;;;;;5017017;28;20205;-71
2022/06/24 07:40:56;;;;;;;0.50;0.50;;;23.00;99.90;;;;;;5052333;28;20221;-75
2022/06/24 07:43:21;;;;;;;0.95;0.52;;;23.00;99.90;;;;;;5040240;28;20197;-75
2022/06/24 07:46:18;;;;;;;0.77;0.50;;;23.30;99.90;;;;;;5040503;28;20210;-74
2022/06/24 07:51:47;;;;;;;0.82;0.65;;;23.60;99.90;;;;;;5046702;28;20209;-72
2022/06/24 07:54:20;;;;;;;1.85;0.73;;;23.60;99.90;;;;;;5053885;28;20672;-73
2022/06/24 08:00:06;;;;;;;0.60;0.60;;;22.70;99.90;;;;;;5000819;28;20237;-74
2022/06/24 08:02:51;;;;;;;0.47;0.47;;;22.80;99.90;;;;;;5034947;28;20645;-75
2022/06/24 08:05:17;;;;;;;0.73;0.57;;;23.10;99.90;;;;;;5015707;28;20248;-74
2022/06/24 08:07:51;;;;;;;0.52;0.52;;;23.00;99.90;;;;;;5035818;28;20209;-73
2022/06/24 08:10:25;;;;;;;1.33;0.57;;;23.00;99.90;;;;;;5037184;28;20201;-73
2022/06/24 08:12:57;;;;;;;0.20;0.20;;;23.50;99.90;;;;;;5037064;28;20202;-75
2022/06/24 08:15:27;;;;;;;0.40;0.40;;;23.20;99.90;;;;;;5041675;28;20729;-74
2022/06/24 08:19:01;;;;;;;0.30;0.30;;;23.30;99.90;;;;;;5072306;28;20334;-74
2022/06/24 08:21:30;;;;;;;0.55;0.55;;;23.90;99.90;;;;;;4962955;28;20704;-73
2022/06/24 08:23:55;;;;;;;1.10;1.00;;;24.20;99.90;;;;;;4991531;28;20211;-74
2022/06/24 08:26:22;;;;;;;2.28;0.70;;;24.50;99.90;;;;;;4991235;28;20777;-74
2022/06/24 08:28:48;;;;;;;0.65;0.60;;;24.70;99.90;;;;;;4993407;28;20314;-75
2022/06/24 08:31:14;;;;;;;0.70;0.70;;;25.00;99.90;;;;;;4991415;28;20198;-73
2022/06/24 08:33:43;;;;;;;1.00;0.60;;;24.70;99.90;;;;;;4992150;28;20199;-73
2022/06/24 08:36:10;;;;;;;1.52;0.63;;;24.80;99.90;;;;;;4999499;28;20191;-76
2022/06/24 08:38:48;;;;;;;0.52;0.52;;;24.60;99.90;;;;;;4993456;28;20199;-74
2022/06/24 08:41:21;;;;;;;2.25;0.80;;;24.70;99.90;;;;;;5010351;28;20676;-75
2022/06/24 08:43:49;;;;;;;0.77;0.68;;;24.90;99.90;;;;;;5010804;28;20202;-75
2022/06/24 08:46:16;;;;;;;0.88;0.88;;;25.20;99.90;;;;;;5011060;28;20253;-73
2022/06/24 08:48:43;;;;;;;0.55;0.47;;;25.20;99.90;;;;;;5011125;28;20689;-74
2022/06/24 08:51:21;;;;;;;2.03;1.27;;;25.20;99.90;;;;;;5039857;28;20301;-75
2022/06/24 08:54:00;;;;;;;2.17;0.65;;;25.30;99.90;;;;;;5097456;28;20188;-76
2022/06/24 08:56:27;;;;;;;0.90;0.57;;;25.70;99.90;;;;;;5083529;28;20654;-75
2022/06/24 08:58:53;;;;;;;0.65;0.47;;;26.10;99.90;;;;;;5075699;28;20563;-75
2022/06/24 09:01:19;;;;;;;0.73;0.73;;;26.30;99.90;;;;;;5074874;28;20564;-74
2022/06/24 09:03:45;;;;;;;1.17;0.85;;;26.40;99.90;;;;;;5075888;28;20268;-75
2022/06/24 09:06:16;;;;;;;0.55;0.55;;;26.40;99.90;;;;;;5077296;28;20477;-73
2022/06/24 09:08:51;;;;;;;0.93;0.85;;;26.60;99.90;;;;;;5074468;28;20197;-72
2022/06/24 09:11:18;;;;;;;1.38;0.70;;;26.80;99.90;;;;;;5074897;28;20196;-73
2022/06/24 09:13:47;;;;;;;0.85;0.85;;;26.10;99.90;;;;;;5076831;28;20225;-74
2022/06/24 09:16:24;;;;;;;0.60;0.60;;;26.00;99.90;;;;;;5066473;28;20755;-74
2022/06/24 09:18:55;;;;;;;0.98;0.77;;;26.10;99.90;;;;;;5055675;28;20195;-73
2022/06/24 09:21:36;;;;;;;1.00;0.70;;;26.40;99.90;;;;;;5057928;28;20193;-75
2022/06/24 09:24:06;;;;;;;1.33;0.93;;;26.60;99.90;;;;;;5038284;28;20205;-75
2022/06/24 09:26:34;;;;;;;1.75;0.88;;;27.10;99.90;;;;;;5058003;28;20216;-74
2022/06/24 09:29:04;;;;;;;1.50;0.75;;;27.60;99.90;;;;;;5058503;28;20192;-74
2022/06/24 09:34:34;;;;;;;0.70;0.55;;;27.80;99.90;;;;;;5006137;28;20209;-75
2022/06/24 09:36:59;;;;;;;1.13;1.00;;;27.60;99.90;;;;;;5035313;28;20292;-75
2022/06/24 09:39:25;;;;;;;1.58;1.17;;;27.60;99.90;;;;;;5036043;28;20273;-75
2022/06/24 09:41:54;;;;;;;1.45;1.10;;;27.50;99.90;;;;;;5018027;28;20201;-74
2022/06/24 09:44:21;;;;;;;1.33;1.17;;;27.10;99.90;;;;;;5016883;28;20352;-73
2022/06/24 09:46:48;;;;;;;1.05;0.85;;;27.10;99.90;;;;;;5038174;28;20232;-73
2022/06/24 09:49:17;;;;;;;1.42;0.70;;;27.40;99.90;;;;;;5037199;28;20208;-74
2022/06/24 09:51:44;;;;;;;1.23;0.98;;;27.60;99.90;;;;;;5042371;28;20289;-73
2022/06/24 09:54:11;;;;;;;0.50;0.50;;;27.80;99.90;;;;;;5035200;28;20243;-74
2022/06/24 09:56:38;;;;;;;3.25;1.13;;;27.80;99.90;;;;;;5034603;28;20664;-73
2022/06/24 10:01:52;;;;;;;0.80;0.80;;;27.00;99.90;;;;;;5033954;28;20207;-73
2022/06/24 10:04:18;;;;;;;0.93;0.50;;;27.10;99.90;;;;;;5034484;28;20198;-73
2022/06/24 10:06:49;;;;;;;0.90;0.77;;;27.60;99.90;;;;;;5047521;28;20573;-72
2022/06/24 10:09:22;;;;;;;0.52;0.52;;;27.80;99.90;;;;;;5036427;28;20689;-73
2022/06/24 10:11:50;;;;;;;1.90;1.00;;;28.20;99.90;;;;;;5036486;28;20189;-73
2022/06/24 10:14:16;;;;;;;1.40;0.93;;;28.20;99.90;;;;;;5054197;28;20236;-73
2022/06/24 10:16:43;;;;;;;0.50;0.50;;;28.50;99.90;;;;;;5054003;28;20256;-74
2022/06/24 10:19:13;;;;;;;3.08;0.98;;;28.70;99.90;;;;;;5054506;28;20193;-74
2022/06/24 10:21:40;;;;;;;1.15;0.57;;;29.00;99.90;;;;;;5053865;28;20569;-74
2022/06/24 10:24:16;;;;;;;1.52;0.85;;;29.10;99.90;;;;;;5053932;28;20227;-73
2022/06/24 10:26:52;;;;;;;0.45;0.45;;;29.20;99.90;;;;;;5035848;28;20578;-72
2022/06/24 10:29:37;;;;;;;0.75;0.75;;;28.80;99.90;;;;;;5035088;28;20342;-73
2022/06/24 10:32:06;;;;;;;0.68;0.65;;;28.70;99.90;;;;;;5035997;28;20224;-75
2022/06/24 10:34:34;;;;;;;0.75;0.50;;;28.70;99.90;;;;;;5053759;28;20288;-74
2022/06/24 10:37:22;;;;;;;1.35;0.88;;;28.40;99.90;;;;;;5053335;28;20199;-73
2022/06/24 10:39:53;;;;;;;0.50;0.50;;;28.60;99.90;;;;;;5036073;28;20193;-73
2022/06/24 10:42:22;;;;;;;0.98;0.57;;;29.00;99.90;;;;;;5035510;28;20672;-73
2022/06/24 10:45:04;;;;;;;0.93;0.47;;;29.00;99.90;;;;;;5035498;28;20301;-74
2022/06/24 10:47:40;;;;;;;0.47;0.47;;;29.40;99.90;;;;;;5033276;28;20210;-74
2022/06/24 10:50:13;;;;;;;1.73;0.50;;;29.80;99.90;;;;;;5016007;28;20656;-74
2022/06/24 10:52:51;;;;;;;1.00;0.90;;;30.00;99.90;;;;;;5033327;28;20794;-73
2022/06/24 10:55:17;;;;;;;0.38;0.38;;;29.60;99.90;;;;;;5033209;28;20204;-74
2022/06/24 10:57:54;;;;;;;0.45;0.45;;;29.20;99.20;;;;;;5015173;28;20249;-75
2022/06/24 11:00:39;;;;;;;0.77;0.68;;;29.10;99.90;;;;;;5032722;28;20194;-74
2022/06/24 11:03:05;;;;;;;1.15;0.70;;;29.10;99.90;;;;;;5033378;28;20190;-75
2022/06/24 11:05:36;;;;;;;0.45;0.45;;;29.40;99.90;;;;;;5035763;28;20197;-75
2022/06/24 11:08:09;;;;;;;2.60;1.00;;;30.00;98.40;;;;;;5021207;28;20221;-75
2022/06/24 11:10:35;;;;;;;0.40;0.40;;;30.50;97.70;;;;;;5033247;28;20559;-75
2022/06/24 11:13:03;;;;;;;0.30;0.30;;;30.80;97.90;;;;;;5033305;28;20189;-75
2022/06/24 11:15:39;;;;;;;0.82;0.70;;;31.00;96.10;;;;;;5033039;28;20700;-75
2022/06/24 11:18:10;;;;;;;1.27;0.80;;;31.00;95.70;;;;;;5033350;28;20713;-75
2022/06/24 11:20:47;;;;;;;0.52;0.52;;;30.90;99.90;;;;;;5032856;28;20200;-75
2022/06/24 11:23:15;;;;;;;0.52;0.47;;;30.70;96.40;;;;;;5033446;28;20617;-75
2022/06/24 11:25:46;;;;;;;1.08;0.98;;;30.90;99.90;;;;;;5047293;28;20185;-75
2022/06/24 11:28:30;;;;;;;0.82;0.63;;;31.40;95.90;;;;;;5034959;28;20216;-75
2022/06/24 11:31:13;;;;;;;2.67;1.15;;;31.60;97.20;;;;;;5052944;28;20278;-75
2022/06/24 11:33:39;;;;;;;0.63;0.47;;;31.90;94.50;;;;;;5035055;28;20200;-75
2022/06/24 11:36:05;;;;;;;0.60;0.60;;;31.70;94.30;;;;;;5052788;28;20195;-75
2022/06/24 11:38:36;;;;;;;0.50;0.28;;;32.10;94.10;;;;;;5034421;28;20674;-75
2022/06/24 11:41:02;;;;;;;0.47;0.47;;;32.20;92.10;;;;;;5034634;28;20243;-76
2022/06/24 11:43:28;;;;;;;1.10;0.73;;;32.20;93.20;;;;;;5052598;28;20197;-75
2022/06/24 11:45:57;;;;;;;1.13;0.40;;;32.20;92.90;;;;;;5052643;28;20208;-76
2022/06/24 11:48:24;;;;;;;0.85;0.52;;;32.00;92.30;;;;;;5052287;28;20868;-76
2022/06/24 11:50:52;;;;;;;0.50;0.50;;;32.20;94.40;;;;;;5052137;28;20189;-76
2022/06/24 11:53:24;;;;;;;0.50;0.30;;;32.60;90.20;;;;;;5034597;28;20196;-75
2022/06/24 11:55:50;;;;;;;0.50;0.47;;;32.50;92.00;;;;;;5034505;28;20204;-75
2022/06/24 11:58:18;;;;;;;0.17;0.17;;;32.20;90.60;;;;;;5052407;28;20192;-75
2022/06/24 12:00:45;;;;;;;0.32;0.32;;;32.00;90.30;;;;;;5033830;28;20219;-75
2022/06/24 12:03:12;;;;;;;0.30;0.30;;;31.70;92.50;;;;;;5052359;28;20288;-75
2022/06/24 12:05:40;;;;;;;0.60;0.50;;;31.60;93.30;;;;;;5051542;28;20730;-75
2022/06/24 12:08:06;;;;;;;0.93;0.70;;;31.60;90.60;;;;;;5052654;28;20291;-76
2022/06/24 12:10:32;;;;;;;0.52;0.52;;;31.90;92.00;;;;;;5051615;28;20189;-73
2022/06/24 12:13:00;;;;;;;0.60;0.52;;;32.20;89.10;;;;;;5052104;28;20185;-74
2022/06/24 12:15:27;;;;;;;0.30;0.30;;;31.90;90.80;;;;;;5038077;28;20282;-75
2022/06/24 12:18:22;;;;;;;2.30;0.60;;;32.10;91.50;;;;;;5073648;28;20670;-75
2022/06/24 12:21:17;;;;;;;0.30;0.30;;;31.90;90.10;;;;;;5073999;28;20659;-76
2022/06/24 12:23:44;;;;;;;0.93;0.57;;;31.90;93.00;;;;;;5068721;28;20224;-77
2022/06/24 12:26:14;;;;;;;1.85;0.85;;;31.90;93.20;;;;;;5070562;28;20211;-77
2022/06/24 12:28:41;;;;;;;0.68;0.43;;;32.50;92.30;;;;;;5070153;28;20678;-74
2022/06/24 12:31:09;;;;;;;0.63;0.47;;;32.90;91.10;;;;;;5071029;28;20713;-75
2022/06/24 12:33:44;;;;;;;0.35;0.32;;;33.50;91.70;;;;;;5071020;28;20192;-75
2022/06/24 12:36:13;;;;;;;0.57;0.38;;;33.50;91.10;;;;;;5080657;28;20256;-77
2022/06/24 12:38:52;;;;;;;0.90;0.50;;;34.00;89.10;;;;;;5091062;28;20199;-75
2022/06/24 12:41:20;;;;;;;0.40;0.30;;;33.60;88.80;;;;;;5070816;28;20283;-75
2022/06/24 12:44:05;;;;;;;2.75;0.85;;;32.90;88.10;;;;;;5072279;28;20192;-76
2022/06/24 12:46:34;;;;;;;1.85;1.08;;;33.10;88.60;;;;;;5071863;28;20200;-76
2022/06/24 12:51:47;;;;;;;1.55;0.65;;;32.50;87.50;;;;;;5072537;28;20540;-75
2022/06/24 12:54:15;;;;;;;0.95;0.70;;;32.30;86.20;;;;;;5070897;28;20615;-75
2022/06/24 12:56:42;;;;;;;0.45;0.30;;;32.40;88.50;;;;;;5071870;28;20188;-74
2022/06/24 12:59:09;;;;;;;0.88;0.60;;;32.50;86.80;;;;;;5067535;28;20537;-75
2022/06/24 13:01:45;;;;;;;2.85;0.52;;;32.70;87.20;;;;;;5051496;28;20250;-75
2022/06/24 13:04:12;;;;;;;0.40;0.40;;;32.90;86.60;;;;;;5051755;28;20199;-75
2022/06/24 13:06:40;;;;;;;0.35;0.35;;;33.10;83.00;;;;;;5059233;28;20300;-74
2022/06/24 13:09:07;;;;;;;0.50;0.50;;;32.50;82.20;;;;;;5051896;28;20667;-75
2022/06/24 13:11:34;;;;;;;1.00;0.45;;;32.60;84.50;;;;;;5051581;28;20327;-75
2022/06/24 13:14:00;;;;;;;0.35;0.25;;;32.30;83.50;;;;;;5051916;28;20189;-75
2022/06/24 13:16:27;;;;;;;1.15;0.95;;;32.20;83.80;;;;;;5040050;28;20218;-75
2022/06/24 13:18:53;;;;;;;0.43;0.43;;;32.40;89.00;;;;;;5033918;28;21015;-75